Time;durP1;ratioP1;P1;durP2;ratioP2;P2;SDS_P1;SDS_P2;PMS_P1;PMS_P2;Temp;Humidity;BMP_temperature;BMP_pressure;BME280_temperature;BME280_humidity;BME280_pressure;Samples;Min_cycle;Max_cycle;Signal;HPM_P1;HPM_P2
2021/11/24 00:00:17;;;;;;;23.17;15.02;;;;;;;10.26;83.37;100459.69;5009383;28;20378;-53
2021/11/24 00:02:43;;;;;;;21.05;14.27;;;;;;;10.01;84.55;100464.41;5012500;28;20469;-54
2021/11/24 00:05:08;;;;;;;22.98;14.43;;;;;;;10.17;83.22;100456.28;5013084;28;20368;-51
2021/11/24 00:07:34;;;;;;;18.75;13.50;;;;;;;10.26;82.94;100459.69;5013111;28;20065;-53
2021/11/24 00:09:59;;;;;;;19.80;13.32;;;;;;;10.23;83.68;100459.22;5012690;28;20034;-52
2021/11/24 00:12:25;;;;;;;21.90;14.57;;;;;;;10.00;84.94;100460.13;5012950;28;20030;-52
2021/11/24 00:14:50;;;;;;;22.02;14.90;;;;;;;9.87;85.48;100465.25;5013101;28;20049;-53
2021/11/24 00:17:16;;;;;;;22.23;15.40;;;;;;;10.02;85.45;100462.59;5012668;28;20076;-54
2021/11/24 00:19:42;;;;;;;25.08;15.48;;;;;;;9.88;85.47;100456.25;5012583;28;20029;-54
2021/11/24 00:22:08;;;;;;;25.33;15.93;;;;;;;10.05;85.18;100462.22;5012776;28;20047;-52
2021/11/24 00:24:33;;;;;;;22.50;15.80;;;;;;;10.21;84.76;100466.56;5012705;28;20474;-53
2021/11/24 00:26:59;;;;;;;24.27;16.58;;;;;;;10.18;84.37;100463.25;5012623;28;20025;-51
2021/11/24 00:29:24;;;;;;;25.33;15.85;;;;;;;10.13;84.06;100457.66;5012599;28;20474;-50
2021/11/24 00:31:50;;;;;;;23.83;15.77;;;;;;;10.27;84.46;100461.31;5013136;28;20084;-52
2021/11/24 00:34:15;;;;;;;21.80;14.75;;;;;;;10.06;84.87;100458.56;5013295;28;20104;-49
2021/11/24 00:36:41;;;;;;;23.63;15.82;;;;;;;10.24;84.54;100453.69;5011710;28;20038;-50
2021/11/24 00:39:06;;;;;;;22.63;14.98;;;;;;;10.27;84.23;100455.19;5013180;28;20080;-51
2021/11/24 00:41:32;;;;;;;24.48;15.23;;;;;;;10.05;85.14;100457.75;5013268;28;20037;-50
2021/11/24 00:43:57;;;;;;;22.73;14.60;;;;;;;10.06;84.83;100456.72;5013318;28;20026;-49
2021/11/24 00:46:22;;;;;;;22.92;14.10;;;;;;;9.96;85.80;100450.88;5012913;28;20493;-51
2021/11/24 00:48:48;;;;;;;23.38;14.57;;;;;;;10.09;85.27;100456.38;5013043;28;20087;-50
2021/11/24 00:51:13;;;;;;;22.60;15.30;;;;;;;9.69;85.49;100425.69;5012965;28;20069;-49
2021/11/24 00:53:40;;;;;;;22.58;14.75;;;;;;;9.98;85.80;100462.16;5012735;28;20034;-50
2021/11/24 00:56:05;;;;;;;23.48;14.00;;;;;;;10.10;85.08;100463.31;5012880;28;20116;-50
2021/11/24 00:58:31;;;;;;;20.77;14.02;;;;;;;10.27;84.74;100461.31;5012901;28;20054;-49
2021/11/24 01:00:56;;;;;;;23.90;14.57;;;;;;;10.06;85.12;100463.88;5012874;28;20112;-49
2021/11/24 01:03:22;;;;;;;20.95;14.25;;;;;;;10.07;85.80;100461.06;5012781;28;20032;-51
2021/11/24 01:05:47;;;;;;;23.13;14.43;;;;;;;10.07;84.42;100470.84;5012535;28;20026;-49
2021/11/24 01:08:13;;;;;;;23.73;15.23;;;;;;;10.16;83.73;100457.28;5012525;28;20033;-49
2021/11/24 01:10:39;;;;;;;23.85;15.32;;;;;;;10.12;84.04;100466.63;5012866;28;20033;-50
2021/11/24 01:13:04;;;;;;;22.95;14.82;;;;;;;10.00;84.95;100464.63;5012303;28;20386;-49
2021/11/24 01:15:30;;;;;;;25.08;15.57;;;;;;;9.97;85.91;100465.78;5012250;28;20034;-49
2021/11/24 01:17:56;;;;;;;24.42;16.65;;;;;;;10.06;85.43;100459.38;5011982;28;20078;-50
2021/11/24 01:20:21;;;;;;;25.95;16.38;;;;;;;9.83;85.28;100438.19;5012294;28;20026;-51
2021/11/24 01:22:47;;;;;;;25.13;16.63;;;;;;;10.18;84.60;100459.75;5012350;28;20026;-52
2021/11/24 01:25:12;;;;;;;29.13;17.70;;;;;;;10.58;82.61;100460.31;5012064;28;20448;-50
2021/11/24 01:27:37;;;;;;;26.10;17.10;;;;;;;10.25;83.53;100462.53;5012464;28;20026;-52
2021/11/24 01:30:04;;;;;;;25.58;17.05;;;;;;;10.06;84.59;100462.03;5011922;28;20030;-50
2021/11/24 01:32:29;;;;;;;27.50;17.08;;;;;;;9.98;85.48;100462.16;5011865;28;20057;-49
2021/11/24 01:34:55;;;;;;;23.42;16.35;;;;;;;10.22;83.64;100461.03;5010231;28;20513;-50
2021/11/24 01:37:20;;;;;;;26.20;17.08;;;;;;;10.01;84.87;100467.06;5011785;28;20099;-49
2021/11/24 01:39:46;;;;;;;28.80;18.40;;;;;;;9.80;84.89;100462.47;5010798;28;20413;-50
2021/11/24 01:42:11;;;;;;;32.10;18.95;;;;;;;9.83;84.51;100454.16;5011826;28;20026;-49
2021/11/24 01:44:37;;;;;;;28.35;18.45;;;;;;;9.90;84.06;100463.06;5011587;28;20038;-49
2021/11/24 01:47:03;;;;;;;31.88;19.77;;;;;;;9.84;85.00;100460.28;5011271;28;20029;-51
2021/11/24 01:49:29;;;;;;;34.78;19.77;;;;;;;9.98;83.91;100456.81;5011551;28;20482;-50
2021/11/24 01:51:57;;;;;;;31.20;19.55;;;;;;;9.82;84.26;100463.09;5012065;28;20135;-49
2021/11/24 01:54:23;;;;;;;34.90;20.40;;;;;;;9.82;84.76;100459.63;5011848;28;20092;-50
2021/11/24 01:56:49;;;;;;;34.10;21.00;;;;;;;9.82;85.36;100462.28;5011652;28;20082;-50
2021/11/24 01:59:14;;;;;;;37.20;22.73;;;;;;;9.80;85.05;100459.81;5011774;28;20061;-49
2021/11/24 02:01:41;;;;;;;38.60;23.38;;;;;;;9.59;85.40;100463.16;5011713;28;20038;-49
2021/11/24 02:04:07;;;;;;;37.40;22.58;;;;;;;9.67;85.14;100460.44;5011865;28;20030;-50
2021/11/24 02:06:33;;;;;;;41.88;23.65;;;;;;;9.82;83.50;100463.09;5010604;28;20025;-49
2021/11/24 02:08:58;;;;;;;36.05;23.08;;;;;;;9.70;83.87;100462.72;5011948;28;20458;-51
2021/11/24 02:11:24;;;;;;;42.47;24.70;;;;;;;9.62;84.36;100457.50;5011321;28;20022;-49
2021/11/24 02:13:49;;;;;;;43.10;25.20;;;;;;;9.66;84.25;100461.44;5011584;28;20033;-49
2021/11/24 02:16:15;;;;;;;40.95;24.30;;;;;;;9.52;84.86;100459.56;5011438;28;20397;-48
2021/11/24 02:18:40;;;;;;;40.78;25.25;;;;;;;9.52;84.76;100457.75;5011300;28;20021;-48
2021/11/24 02:21:06;;;;;;;42.97;25.02;;;;;;;9.48;84.57;100466.25;5009783;28;20386;-49
2021/11/24 02:23:31;;;;;;;46.00;25.02;;;;;;;9.38;84.40;100466.47;5010880;28;20030;-49
2021/11/24 02:25:56;;;;;;;46.13;26.00;;;;;;;9.20;84.92;100459.66;5011049;28;20097;-49
2021/11/24 02:28:22;;;;;;;41.28;25.70;;;;;;;9.11;85.84;100459.88;5011165;28;20447;-48
2021/11/24 02:30:48;;;;;;;46.67;25.35;;;;;;;9.16;85.78;100465.50;5010508;28;20022;-49
2021/11/24 02:33:13;;;;;;;42.83;25.42;;;;;;;9.25;85.94;100463.59;5011043;28;20401;-48
2021/11/24 02:35:41;;;;;;;44.67;26.02;;;;;;;9.48;84.52;100461.78;5011208;28;20403;-48
2021/11/24 02:38:07;;;;;;;42.17;25.33;;;;;;;9.25;85.47;100461.75;5011199;28;20033;-49
2021/11/24 02:40:33;;;;;;;43.58;24.80;;;;;;;9.16;85.84;100457.53;5011288;28;20034;-48
2021/11/24 02:42:58;;;;;;;46.20;26.35;;;;;;;9.05;87.38;100472.03;5011145;28;20104;-51
2021/11/24 02:45:24;;;;;;;44.30;26.30;;;;;;;9.25;85.96;100472.38;5010918;28;20052;-51
2021/11/24 02:47:49;;;;;;;43.58;26.02;;;;;;;9.34;85.45;100476.63;5010996;28;20030;-49
2021/11/24 02:50:15;;;;;;;43.13;25.38;;;;;;;9.46;84.98;100468.25;5010915;28;20380;-50
2021/11/24 02:52:40;;;;;;;44.28;26.23;;;;;;;9.26;85.54;100468.72;5010703;28;20036;-50
2021/11/24 02:55:06;;;;;;;41.38;24.80;;;;;;;9.12;86.78;100474.78;5010326;28;20050;-49
2021/11/24 02:57:42;;;;;;;41.28;25.55;;;;;;;9.07;86.87;100477.16;5010583;28;20030;-50
2021/11/24 03:00:15;;;;;;;44.22;24.30;;;;;;;9.07;87.29;100472.69;5010602;28;20026;-51
2021/11/24 03:02:41;;;;;;;45.33;25.80;;;;;;;9.27;85.83;100482.84;5010426;28;20029;-49
2021/11/24 03:05:07;;;;;;;40.25;24.70;;;;;;;9.41;84.88;100475.94;5010650;28;20112;-49
2021/11/24 03:07:33;;;;;;;41.60;25.33;;;;;;;9.16;86.07;100476.94;5010529;28;20041;-51
2021/11/24 03:09:58;;;;;;;40.47;24.35;;;;;;;9.29;85.21;100483.47;5010576;28;20032;-49
2021/11/24 03:12:24;;;;;;;45.67;25.73;;;;;;;9.38;85.02;100482.41;5010367;28;20022;-50
2021/11/24 03:14:49;;;;;;;45.45;25.88;;;;;;;9.33;85.28;100488.28;5010106;28;20029;-50
2021/11/24 03:17:15;;;;;;;46.83;26.80;;;;;;;9.02;86.02;100466.25;5010380;28;20034;-49
2021/11/24 03:19:40;;;;;;;43.95;26.13;;;;;;;9.08;86.74;100492.94;5009947;28;20026;-49
2021/11/24 03:22:06;;;;;;;46.53;26.63;;;;;;;9.18;85.80;100487.41;5010295;28;20042;-52
2021/11/24 03:24:31;;;;;;;43.95;26.75;;;;;;;8.98;86.97;100497.63;5010283;28;20045;-50
2021/11/24 03:26:57;;;;;;;49.00;26.92;;;;;;;8.80;87.80;100503.19;5010237;28;20030;-50
2021/11/24 03:29:22;;;;;;;48.75;27.23;;;;;;;9.20;86.21;100502.13;5008923;28;20036;-51
2021/11/24 03:31:47;;;;;;;45.92;27.85;;;;;;;9.17;85.27;100504.31;5010175;28;20018;-49
2021/11/24 03:34:13;;;;;;;48.90;29.15;;;;;;;9.04;86.89;100506.72;5010313;28;20037;-50
2021/11/24 03:36:38;;;;;;;50.50;28.42;;;;;;;8.98;87.04;100521.50;5010234;28;20025;-53
2021/11/24 03:39:04;;;;;;;57.97;30.02;;;;;;;8.90;87.67;100516.25;5010071;28;20026;-51
2021/11/24 03:41:30;;;;;;;51.70;28.50;;;;;;;8.89;87.28;100517.25;5009900;28;20462;-51
2021/11/24 03:43:55;;;;;;;51.28;29.58;;;;;;;8.93;87.56;100526.50;5010138;28;20064;-50
2021/11/24 03:46:21;;;;;;;57.08;30.33;;;;;;;8.95;87.09;100521.88;5009933;28;20050;-52
2021/11/24 03:48:46;;;;;;;59.70;30.75;;;;;;;8.96;87.02;100529.66;5010250;28;20548;-50
2021/11/24 03:51:12;;;;;;;53.72;30.05;;;;;;;9.10;86.69;100514.81;5010068;28;20030;-51
2021/11/24 03:53:40;;;;;;;56.88;31.52;;;;;;;9.23;85.46;100524.03;5009945;28;20033;-49
2021/11/24 03:56:07;;;;;;;53.30;30.15;;;;;;;9.15;86.02;100527.56;5009865;28;20494;-51
2021/11/24 03:58:32;;;;;;;55.45;29.35;;;;;;;9.04;86.27;100535.91;5010182;28;20037;-50
2021/11/24 04:00:58;;;;;;;54.47;29.95;;;;;;;8.99;87.20;100537.28;5009640;28;20041;-50
2021/11/24 04:03:23;;;;;;;56.40;29.70;;;;;;;8.92;86.58;100530.19;5009742;28;20038;-49
2021/11/24 04:05:52;;;;;;;51.85;29.85;;;;;;;8.85;87.05;100537.16;5009764;28;20033;-52
2021/11/24 04:08:18;;;;;;;53.38;28.38;;;;;;;8.74;87.61;100539.22;5010268;28;20038;-52
2021/11/24 04:10:43;;;;;;;58.03;30.20;;;;;;;8.94;87.29;100544.09;5009802;28;20049;-54
2021/11/24 04:13:09;;;;;;;51.03;28.95;;;;;;;8.64;88.18;100535.09;5009498;28;20037;-49
2021/11/24 04:15:34;;;;;;;51.25;28.25;;;;;;;8.70;88.05;100537.06;5009846;28;20022;-50
2021/11/24 04:18:00;;;;;;;49.13;28.38;;;;;;;8.75;88.10;100546.16;5009758;28;20033;-53
2021/11/24 04:20:25;;;;;;;48.35;28.52;;;;;;;8.50;89.06;100547.25;5009774;28;20033;-51
2021/11/24 04:22:51;;;;;;;46.00;27.67;;;;;;;8.51;88.81;100547.09;5009637;28;20102;-50
2021/11/24 04:25:18;;;;;;;54.72;28.52;;;;;;;8.61;88.38;100554.84;5009646;28;20038;-50
2021/11/24 04:27:43;;;;;;;51.80;28.98;;;;;;;8.71;87.74;100555.47;5009585;28;20486;-50
2021/11/24 04:30:09;;;;;;;46.55;27.60;;;;;;;8.63;88.59;100563.47;5009770;28;20153;-51
2021/11/24 04:32:35;;;;;;;52.90;29.90;;;;;;;8.67;88.50;100563.97;5009942;28;20030;-50
2021/11/24 04:35:00;;;;;;;49.58;27.90;;;;;;;8.67;88.43;100564.78;5009349;28;20033;-50
2021/11/24 04:37:26;;;;;;;53.60;28.95;;;;;;;8.57;88.76;100567.63;5009679;28;20076;-49
2021/11/24 04:39:51;;;;;;;53.15;29.08;;;;;;;8.43;89.37;100578.94;5009375;28;20030;-51
2021/11/24 04:42:17;;;;;;;51.53;28.27;;;;;;;8.37;89.15;100574.28;5008208;28;20041;-50
2021/11/24 04:44:42;;;;;;;50.30;28.27;;;;;;;8.57;88.30;100577.41;5010007;28;20423;-50
2021/11/24 04:47:08;;;;;;;57.35;30.40;;;;;;;8.44;90.01;100571.81;5009792;28;20026;-50
2021/11/24 04:49:33;;;;;;;56.03;29.58;;;;;;;8.43;88.89;100578.94;5012855;28;20099;-53
2021/11/24 04:51:59;;;;;;;58.70;30.00;;;;;;;8.53;88.97;100579.59;5013399;28;20041;-52
2021/11/24 04:54:24;;;;;;;55.13;29.52;;;;;;;9.05;88.56;100582.72;5012605;28;20044;-53
2021/11/24 04:56:49;;;;;;;57.10;28.75;;;;;;;8.83;87.43;100586.94;5012448;28;20781;-52
2021/11/24 04:59:15;;;;;;;51.72;28.67;;;;;;;8.73;87.02;100585.31;5012122;28;20601;-52
2021/11/24 05:01:42;;;;;;;56.40;29.10;;;;;;;8.77;87.86;100581.31;5012082;28;20109;-52
2021/11/24 05:04:07;;;;;;;54.00;29.60;;;;;;;8.56;87.87;100589.84;5012249;28;20038;-53
2021/11/24 05:06:32;;;;;;;52.67;28.23;;;;;;;8.38;88.83;100584.72;5012203;28;20100;-52
2021/11/24 05:08:58;;;;;;;52.25;28.45;;;;;;;8.37;89.24;100596.31;5010962;28;20033;-52
2021/11/24 05:11:23;;;;;;;51.20;26.60;;;;;;;8.13;89.88;100589.22;5012196;28;20030;-51
2021/11/24 05:13:55;;;;;;;51.13;27.77;;;;;;;8.09;89.51;100571.16;5010660;28;20438;-52
2021/11/24 05:16:22;;;;;;;57.08;29.92;;;;;;;8.37;88.83;100606.09;5011221;28;20096;-52
2021/11/24 05:18:48;;;;;;;51.60;27.92;;;;;;;8.35;89.02;100608.09;5011656;28;20037;-53
2021/11/24 05:21:27;;;;;;;51.97;27.45;;;;;;;8.19;89.91;100607.13;5011742;28;20029;-51
2021/11/24 05:23:53;;;;;;;56.17;28.65;;;;;;;8.23;89.25;100610.25;5011720;28;20022;-52
2021/11/24 05:26:18;;;;;;;51.13;27.33;;;;;;;8.13;90.00;100615.75;5011611;28;20152;-50
2021/11/24 05:28:44;;;;;;;48.10;26.48;;;;;;;8.09;90.31;100613.56;5009398;28;20036;-51
2021/11/24 05:31:09;;;;;;;53.72;27.13;;;;;;;8.25;90.00;100620.72;5006196;28;20034;-51
2021/11/24 05:33:36;;;;;;;49.78;26.83;;;;;;;8.26;90.04;100623.16;5005633;28;20465;-55
2021/11/24 05:36:03;;;;;;;51.85;27.73;;;;;;;8.18;90.88;100623.19;4991907;28;20073;-56
2021/11/24 05:38:28;;;;;;;50.45;26.60;;;;;;;8.10;90.48;100636.44;4992571;28;20108;-55
2021/11/24 05:40:54;;;;;;;51.35;25.95;;;;;;;8.04;91.16;100640.59;5011491;28;20602;-55
2021/11/24 05:43:21;;;;;;;54.88;29.30;;;;;;;8.16;90.81;100641.91;5011506;28;20029;-54
2021/11/24 05:48:15;;;;;;;47.63;27.35;;;;;;;8.34;89.48;100647.06;5010712;28;20091;-56
2021/11/24 05:50:42;;;;;;;53.97;28.65;;;;;;;8.32;89.80;100649.06;4992568;28;20026;-54
2021/11/24 05:53:08;;;;;;;44.88;23.33;;;;;;;7.98;89.77;100652.69;5010467;28;20048;-54
2021/11/24 05:55:33;;;;;;;42.85;23.85;;;;;;;7.93;90.11;100654.16;5010040;28;20053;-53
2021/11/24 05:57:59;;;;;;;45.42;25.58;;;;;;;7.97;90.92;100658.13;5010155;28;20049;-53
2021/11/24 06:00:24;;;;;;;46.15;24.58;;;;;;;8.02;90.26;100659.31;5007509;28;20025;-51
2021/11/24 06:02:50;;;;;;;45.03;22.80;;;;;;;8.36;88.13;100660.16;5008625;28;20021;-53
2021/11/24 06:05:15;;;;;;;39.03;21.58;;;;;;;8.14;87.58;100651.84;5009424;28;20566;-54
2021/11/24 06:07:41;;;;;;;35.13;18.88;;;;;;;8.20;86.00;100656.47;5010141;28;20021;-54
2021/11/24 06:10:08;;;;;;;35.42;19.65;;;;;;;8.14;85.86;100669.59;5010930;28;20053;-52
2021/11/24 06:12:34;;;;;;;33.15;19.00;;;;;;;8.27;85.00;100663.81;5008923;28;20033;-51
2021/11/24 06:15:00;;;;;;;35.55;19.00;;;;;;;8.21;85.40;100671.41;5010852;28;20029;-53
2021/11/24 06:17:25;;;;;;;33.22;18.85;;;;;;;8.15;85.50;100672.09;5011313;28;20117;-53
2021/11/24 06:19:50;;;;;;;32.13;17.52;;;;;;;8.11;85.11;100675.22;5011347;28;20030;-52
2021/11/24 06:22:16;;;;;;;31.58;15.95;;;;;;;8.26;82.95;100686.00;5011180;28;20028;-52
2021/11/24 06:24:41;;;;;;;24.67;14.20;;;;;;;7.91;83.59;100686.13;5011382;28;20374;-52
2021/11/24 06:27:07;;;;;;;21.85;12.60;;;;;;;8.22;80.88;100683.69;5011441;28;20434;-54
2021/11/24 06:29:32;;;;;;;25.85;13.10;;;;;;;8.38;80.58;100687.34;5011488;28;20040;-54
2021/11/24 06:31:58;;;;;;;23.85;12.77;;;;;;;8.28;80.52;100681.34;5010510;28;20149;-52
2021/11/24 06:34:24;;;;;;;23.38;12.23;;;;;;;8.25;80.21;100685.19;5009854;28;20025;-51
2021/11/24 06:36:49;;;;;;;20.38;12.05;;;;;;;8.49;78.97;100696.81;5010768;28;20025;-52
2021/11/24 06:39:15;;;;;;;20.65;11.93;;;;;;;8.19;79.83;100688.50;5011047;28;20021;-51
2021/11/24 06:41:40;;;;;;;21.88;11.50;;;;;;;8.20;79.48;100690.94;5010922;28;20024;-51
2021/11/24 06:44:06;;;;;;;20.13;11.15;;;;;;;8.30;78.12;100689.97;5010549;28;20095;-49
2021/11/24 06:46:33;;;;;;;21.58;11.40;;;;;;;8.31;79.00;100691.66;5010591;28;20520;-39
2021/11/24 06:48:58;;;;;;;17.77;10.32;;;;;;;8.17;77.65;100701.09;5011178;28;20397;-39
2021/11/24 06:51:24;;;;;;;21.73;11.55;;;;;;;8.05;79.66;100703.19;5010223;28;20478;-39
2021/11/24 06:53:49;;;;;;;18.70;10.30;;;;;;;8.19;78.37;100707.06;5009816;28;20482;-40
2021/11/24 06:56:15;;;;;;;19.83;10.60;;;;;;;8.22;78.68;100712.00;5009906;28;20045;-40
2021/11/24 06:58:40;;;;;;;15.60;9.82;;;;;;;8.30;77.66;100714.69;5010270;28;20032;-38
2021/11/24 07:01:06;;;;;;;15.65;9.18;;;;;;;8.29;77.07;100715.66;5010062;28;20481;-38
2021/11/24 07:03:31;;;;;;;17.15;10.00;;;;;;;8.27;78.31;100709.69;5010193;28;20033;-39
2021/11/24 07:05:57;;;;;;;16.27;9.40;;;;;;;8.40;78.14;100709.22;5010183;28;20022;-38
2021/11/24 07:08:22;;;;;;;15.77;8.80;;;;;;;8.46;77.68;100715.72;5011265;28;20022;-39
2021/11/24 07:10:48;;;;;;;12.00;8.00;;;;;;;8.48;77.12;100714.53;5009642;28;20399;-39
2021/11/24 07:13:13;;;;;;;12.73;7.82;;;;;;;8.38;77.14;100719.16;5010199;28;20162;-38
2021/11/24 07:15:39;;;;;;;11.50;7.30;;;;;;;8.54;75.62;100715.72;5010759;28;20576;-38
2021/11/24 07:18:04;;;;;;;10.25;6.50;;;;;;;8.47;74.57;100720.84;5010132;28;20509;-39
2021/11/24 07:20:30;;;;;;;15.38;6.80;;;;;;;8.37;75.17;100714.84;5010288;28;20026;-39
2021/11/24 07:22:55;;;;;;;10.20;6.47;;;;;;;8.48;73.79;100703.94;5010269;28;20382;-39
2021/11/24 07:25:21;;;;;;;8.93;6.07;;;;;;;8.42;72.86;100723.16;5010105;28;20387;-39
2021/11/24 07:27:46;;;;;;;9.77;5.85;;;;;;;8.24;72.89;100715.31;5010428;28;20053;-39
2021/11/24 07:30:12;;;;;;;9.15;5.88;;;;;;;8.34;72.51;100729.28;5009914;28;20374;-39
2021/11/24 07:32:38;;;;;;;8.27;5.43;;;;;;;8.29;73.87;100728.09;5010534;28;20025;-39
2021/11/24 07:35:05;;;;;;;8.52;5.45;;;;;;;8.23;73.98;100734.91;5010232;28;20533;-38
2021/11/24 07:37:30;;;;;;;8.27;5.80;;;;;;;8.47;72.46;100715.53;5010115;28;20046;-39
2021/11/24 07:39:56;;;;;;;7.75;5.00;;;;;;;8.51;71.11;100735.44;5010016;28;20051;-38
2021/11/24 07:42:21;;;;;;;9.07;5.28;;;;;;;8.59;70.86;100730.13;5009683;28;20040;-38
2021/11/24 07:44:47;;;;;;;9.23;5.50;;;;;;;8.61;70.69;100736.09;5009451;28;20033;-39
2021/11/24 07:47:12;;;;;;;8.32;4.97;;;;;;;8.69;68.54;100722.00;5009866;28;20029;-39
2021/11/24 07:49:38;;;;;;;9.73;4.90;;;;;;;8.66;69.36;100734.78;5009845;28;20022;-38
2021/11/24 07:52:04;;;;;;;6.70;4.50;;;;;;;8.68;68.86;100740.72;5009550;28;20045;-38
2021/11/24 07:54:29;;;;;;;7.75;4.78;;;;;;;8.74;68.94;100726.81;5008289;28;20387;-39
2021/11/24 07:56:55;;;;;;;6.72;4.30;;;;;;;8.56;67.91;100729.63;5009705;28;20053;-39
2021/11/24 07:59:20;;;;;;;7.22;4.70;;;;;;;8.87;66.71;100743.06;5010050;28;20120;-39
2021/11/24 08:01:46;;;;;;;7.78;4.53;;;;;;;8.99;66.81;100736.41;5009907;28;20410;-39
2021/11/24 08:04:11;;;;;;;8.32;4.50;;;;;;;9.03;67.12;100730.75;5010208;28;20030;-45
2021/11/24 08:06:37;;;;;;;7.03;4.30;;;;;;;8.97;67.02;100748.19;5010908;28;20033;-40
2021/11/24 08:09:03;;;;;;;6.63;4.35;;;;;;;8.96;65.44;100723.44;5008202;28;20037;-38
2021/11/24 08:11:28;;;;;;;6.40;4.10;;;;;;;8.94;64.78;100736.06;5009437;28;20026;-39
2021/11/24 08:13:54;;;;;;;5.60;4.05;;;;;;;9.20;64.08;100737.69;5009086;28;20033;-38
2021/11/24 08:16:19;;;;;;;5.60;3.92;;;;;;;9.13;63.35;100742.84;5009402;28;20034;-38
2021/11/24 08:18:45;;;;;;;6.78;4.28;;;;;;;9.06;65.46;100733.88;5009305;28;20324;-39
2021/11/24 08:21:10;;;;;;;6.13;4.13;;;;;;;8.78;64.63;100707.72;5009112;28;20071;-37
2021/11/24 08:23:35;;;;;;;4.95;3.67;;;;;;;9.25;63.07;100743.28;5012044;28;20030;-38
2021/11/24 08:26:01;;;;;;;6.53;4.30;;;;;;;9.39;62.97;100739.13;5013285;28;20037;-40
2021/11/24 08:28:26;;;;;;;5.57;3.75;;;;;;;9.19;63.35;100742.19;5013737;28;20497;-37
2021/11/24 08:30:52;;;;;;;7.13;4.25;;;;;;;9.35;62.48;100743.94;5011423;28;20096;-39
2021/11/24 08:33:17;;;;;;;6.65;4.75;;;;;;;9.34;63.87;100742.28;5011510;28;20025;-38
2021/11/24 08:35:43;;;;;;;8.00;4.90;;;;;;;9.34;63.07;100744.09;5012964;28;20029;-38
2021/11/24 08:38:08;;;;;;;7.13;4.20;;;;;;;9.08;65.20;100737.22;5012816;28;20523;-38
2021/11/24 08:40:34;;;;;;;6.30;4.43;;;;;;;9.43;62.86;100734.28;5012978;28;20520;-38
2021/11/24 08:42:59;;;;;;;6.10;4.25;;;;;;;9.50;63.72;100736.09;5012937;28;20533;-38
2021/11/24 08:45:25;;;;;;;6.35;3.25;;;;;;;9.04;63.55;100751.81;5013209;28;20025;-38
2021/11/24 08:47:50;;;;;;;7.53;5.22;;;;;;;9.13;63.54;100734.88;5011982;28;20041;-39
2021/11/24 08:50:17;;;;;;;8.55;5.10;;;;;;;9.15;64.04;100738.19;5012479;28;20026;-39
2021/11/24 08:52:42;;;;;;;9.68;5.22;;;;;;;9.17;65.34;100740.66;5012556;28;20091;-38
2021/11/24 08:55:08;;;;;;;8.07;5.18;;;;;;;8.91;65.13;100728.44;5012692;28;20054;-39
2021/11/24 08:57:35;;;;;;;8.15;4.72;;;;;;;8.98;65.82;100726.75;5012807;28;20476;-40
2021/11/24 09:00:02;;;;;;;8.63;5.03;;;;;;;9.05;64.02;100750.81;5013259;28;20034;-38
2021/11/24 09:02:28;;;;;;;6.97;4.32;;;;;;;8.84;64.44;100731.94;5013476;28;20025;-38
2021/11/24 09:04:55;;;;;;;7.18;4.82;;;;;;;9.09;62.78;100741.50;5013117;28;20040;-40
2021/11/24 09:07:20;;;;;;;8.60;5.40;;;;;;;9.27;63.07;100728.03;5013163;28;20088;-39
2021/11/24 09:09:45;;;;;;;7.32;5.15;;;;;;;9.30;62.90;100733.00;5013172;28;20133;-38
2021/11/24 09:12:11;;;;;;;7.95;4.70;;;;;;;9.13;62.74;100726.91;5011425;28;20037;-50
2021/11/24 09:14:36;;;;;;;6.20;3.70;;;;;;;9.07;62.17;100724.09;5012819;28;20041;-38
2021/11/24 09:17:02;;;;;;;7.82;4.60;;;;;;;9.22;61.78;100727.72;5012439;28;20478;-39
2021/11/24 09:19:27;;;;;;;9.88;5.10;;;;;;;9.31;61.85;100731.16;5012524;28;20033;-37
2021/11/24 09:21:55;;;;;;;9.68;4.57;;;;;;;9.23;62.01;100729.34;5012106;28;20033;-38
2021/11/24 09:24:26;;;;;;;7.22;4.40;;;;;;;9.19;61.93;100733.34;5011190;28;20026;-49
2021/11/24 09:26:58;;;;;;;9.05;4.38;;;;;;;8.96;63.09;100730.59;5012801;28;20096;-48
2021/11/24 09:29:25;;;;;;;15.13;4.32;;;;;;;9.26;62.92;100738.84;5011366;28;20041;-53
2021/11/24 09:31:51;;;;;;;6.82;4.10;;;;;;;8.98;63.44;100734.72;5011010;28;20384;-51
2021/11/24 09:34:17;;;;;;;7.63;4.38;;;;;;;8.95;64.07;100728.94;5011462;28;20033;-49
2021/11/24 09:36:43;;;;;;;8.18;5.00;;;;;;;8.97;64.13;100726.94;5012233;28;20034;-38
2021/11/24 09:39:10;;;;;;;7.68;4.38;;;;;;;8.72;64.90;100732.28;5012534;28;20033;-51
2021/11/24 09:41:44;;;;;;;8.63;3.92;;;;;;;8.78;64.91;100728.13;5011841;28;20048;-48
2021/11/24 09:44:09;;;;;;;9.55;4.57;;;;;;;9.02;64.23;100723.78;5010128;28;20030;-51
2021/11/24 09:46:35;;;;;;;9.98;4.47;;;;;;;8.86;64.85;100733.44;5011583;28;20030;-49
2021/11/24 09:49:04;;;;;;;11.70;4.63;;;;;;;8.67;64.64;100725.81;5011668;28;20092;-49
2021/11/24 09:51:33;;;;;;;8.55;4.30;;;;;;;8.80;64.24;100736.75;5012133;28;20018;-50
2021/11/24 09:54:00;;;;;;;9.20;4.40;;;;;;;8.88;64.08;100725.31;5009698;28;20048;-49
2021/11/24 09:56:25;;;;;;;8.02;4.95;;;;;;;9.01;63.80;100725.63;5011345;28;20056;-51
2021/11/24 09:58:51;;;;;;;6.25;4.03;;;;;;;8.73;63.33;100733.94;5011054;28;20017;-51
2021/11/24 10:01:16;;;;;;;7.05;4.85;;;;;;;9.04;63.24;100733.22;5010136;28;20094;-51
2021/11/24 10:03:43;;;;;;;6.53;4.00;;;;;;;9.01;61.03;100730.91;5011911;28;20022;-54
2021/11/24 10:06:08;;;;;;;5.43;3.50;;;;;;;8.85;61.04;100749.50;5011422;28;20036;-50
2021/11/24 10:08:34;;;;;;;8.05;3.75;;;;;;;8.80;60.72;100734.94;5010600;28;20033;-51
2021/11/24 10:11:00;;;;;;;6.55;3.75;;;;;;;9.14;60.36;100723.25;5011186;28;20100;-49
2021/11/24 10:13:27;;;;;;;5.45;3.53;;;;;;;9.04;60.63;100724.44;5011325;28;20052;-51
2021/11/24 10:15:52;;;;;;;6.13;3.88;;;;;;;9.03;60.79;100730.75;5011094;28;20072;-39
2021/11/24 10:18:20;;;;;;;8.65;4.07;;;;;;;8.85;61.98;100722.97;5010933;28;20457;-50
2021/11/24 10:21:06;;;;;;;8.60;3.97;;;;;;;8.88;62.30;100731.44;5011065;28;20125;-49
2021/11/24 10:23:38;;;;;;;11.25;4.22;;;;;;;8.97;61.54;100716.34;5011271;28;20706;-38
2021/11/24 10:26:13;;;;;;;8.85;4.13;;;;;;;9.10;61.48;100715.78;5010794;28;20081;-37
2021/11/24 10:28:38;;;;;;;6.10;4.30;;;;;;;8.99;61.83;100715.16;5010509;28;20121;-39
2021/11/24 10:31:04;;;;;;;7.47;4.18;;;;;;;9.26;61.45;100712.28;5010840;28;20412;-39
2021/11/24 10:33:32;;;;;;;8.55;4.10;;;;;;;9.16;61.43;100707.97;4993521;28;20040;-38
2021/11/24 10:36:07;;;;;;;9.15;4.05;;;;;;;9.54;61.22;100702.03;4993378;28;20030;-39
2021/11/24 10:38:43;;;;;;;8.38;4.20;;;;;;;9.70;61.28;100701.13;5011122;28;20025;-39
2021/11/24 10:41:11;;;;;;;9.13;4.43;;;;;;;9.65;60.61;100698.16;5011564;28;20057;-50
2021/11/24 10:43:45;;;;;;;9.00;4.50;;;;;;;9.76;60.53;100692.44;5011441;28;20030;-50
2021/11/24 10:46:13;;;;;;;7.63;4.28;;;;;;;10.16;60.49;100686.00;5009654;28;20087;-49
2021/11/24 10:48:39;;;;;;;6.25;4.43;;;;;;;9.61;61.02;100694.19;5010827;28;20029;-50
2021/11/24 10:51:27;;;;;;;7.03;4.05;;;;;;;9.62;61.15;100686.03;5011009;28;20030;-40
2021/11/24 10:54:14;;;;;;;6.53;4.15;;;;;;;9.58;60.99;100688.22;5007163;28;20103;-38
2021/11/24 10:57:02;;;;;;;6.43;4.13;;;;;;;9.74;60.02;100676.66;5009807;28;20141;-39
2021/11/24 10:59:27;;;;;;;8.13;4.13;;;;;;;9.79;60.47;100676.16;5007544;28;20030;-38
2021/11/24 11:02:13;;;;;;;9.07;3.90;;;;;;;9.76;58.75;100681.81;5010034;28;20030;-39
2021/11/24 11:05:18;;;;;;;7.30;4.13;;;;;;;9.54;57.75;100686.09;5008659;28;20025;-38
2021/11/24 11:07:49;;;;;;;6.28;4.10;;;;;;;9.77;57.09;100667.53;5007199;28;20038;-39
2021/11/24 11:10:22;;;;;;;5.60;3.72;;;;;;;9.74;56.63;100660.72;5010186;28;20041;-39
2021/11/24 11:12:50;;;;;;;5.40;3.28;;;;;;;9.51;56.28;100676.63;5010863;28;20025;-50
2021/11/24 11:15:33;;;;;;;9.85;4.18;;;;;;;9.57;58.30;100681.22;5010367;28;20107;-51
2021/11/24 11:18:06;;;;;;;7.15;4.18;;;;;;;9.52;58.16;100653.53;5009319;28;20030;-51
2021/11/24 11:21:00;;;;;;;7.63;4.38;;;;;;;9.68;57.81;100668.56;5008051;28;20518;-51